Time;durP1;ratioP1;P1;durP2;ratioP2;P2;SDS_P1;SDS_P2;PMS_P1;PMS_P2;Temp;Humidity;BMP_temperature;BMP_pressure;BME280_temperature;BME280_humidity;BME280_pressure;Samples;Min_cycle;Max_cycle;Signal;HPM_P1;HPM_P2
2022/06/01 00:02:15;;;;;;;15.18;10.38;;;;;;;10.33;100.00;98838.84;5062638;28;20489;-88
2022/06/01 00:05:19;;;;;;;12.23;9.80;;;;;;;10.69;100.00;98858.69;5009974;28;20037;-88
2022/06/01 00:07:51;;;;;;;14.98;10.60;;;;;;;10.23;100.00;98837.38;5033136;28;20164;-90
2022/06/01 00:10:43;;;;;;;13.38;9.30;;;;;;;10.51;100.00;98846.16;5038174;28;20036;-91
2022/06/01 00:13:39;;;;;;;14.30;9.63;;;;;;;10.52;100.00;98868.78;5007461;28;20036;-90
2022/06/01 00:16:23;;;;;;;14.63;10.63;;;;;;;10.38;100.00;98857.41;5033768;28;20172;-90
2022/06/01 00:18:49;;;;;;;16.88;12.00;;;;;;;10.39;100.00;98867.69;5020322;28;20880;-90
2022/06/01 00:21:16;;;;;;;16.88;12.45;;;;;;;10.43;100.00;98860.25;4996739;28;20034;-89
2022/06/01 00:23:48;;;;;;;22.65;14.52;;;;;;;10.34;100.00;98851.72;5043794;28;20043;-89
2022/06/01 00:26:18;;;;;;;17.65;13.20;;;;;;;10.69;100.00;98869.19;5010374;28;20073;-89
2022/06/01 00:28:48;;;;;;;20.50;14.55;;;;;;;10.55;100.00;98866.56;5032991;28;20041;-90
2022/06/01 00:31:14;;;;;;;21.85;16.95;;;;;;;10.33;100.00;98860.59;5022619;28;20055;-91
2022/06/01 00:33:42;;;;;;;28.55;18.73;;;;;;;10.20;100.00;98842.19;5023478;28;20037;-90
2022/06/01 00:36:32;;;;;;;27.45;20.08;;;;;;;10.53;100.00;98854.63;5059679;28;20074;-90
2022/06/01 00:39:21;;;;;;;33.55;21.63;;;;;;;10.55;100.00;98848.19;5060823;28;20127;-90
2022/06/01 00:42:09;;;;;;;30.83;21.83;;;;;;;10.58;100.00;98873.22;5068794;28;20068;-90
2022/06/01 00:44:58;;;;;;;29.42;21.52;;;;;;;10.66;100.00;98864.34;5062675;28;20045;-90
2022/06/01 00:47:27;;;;;;;29.20;20.98;;;;;;;10.61;100.00;98864.97;5054171;28;20028;-91
2022/06/01 00:50:19;;;;;;;31.17;20.15;;;;;;;10.38;100.00;98847.69;5062885;28;20131;-90
2022/06/01 00:53:05;;;;;;;28.63;18.95;;;;;;;10.60;100.00;98867.78;5302494;22;20044;-90
2022/06/01 00:55:41;;;;;;;23.10;18.13;;;;;;;10.69;100.00;98875.28;5040677;28;20127;-91
2022/06/01 00:58:30;;;;;;;24.75;17.67;;;;;;;10.53;100.00;98862.50;5061509;28;20043;-91
2022/06/01 01:01:21;;;;;;;30.25;18.50;;;;;;;10.38;100.00;98858.19;5063886;28;20037;-89
2022/06/01 01:04:07;;;;;;;22.23;16.73;;;;;;;10.54;100.00;98861.50;5062750;28;20051;-90
2022/06/01 01:06:49;;;;;;;24.50;17.15;;;;;;;10.64;100.00;98871.63;5059316;28;20032;-91
2022/06/01 01:09:37;;;;;;;22.15;16.38;;;;;;;10.62;100.00;98848.22;5059497;28;20043;-90
2022/06/01 01:12:56;;;;;;;20.08;14.82;;;;;;;10.42;100.00;98840.28;5043470;28;20045;-91
2022/06/01 01:15:20;;;;;;;22.15;16.27;;;;;;;10.54;100.00;98848.38;5046067;28;20017;-91
2022/06/01 01:18:11;;;;;;;22.27;16.08;;;;;;;10.47;100.00;98874.59;5049944;28;20044;-91
2022/06/01 01:21:16;;;;;;;19.58;15.02;;;;;;;10.72;100.00;98874.06;5072363;28;20033;-91
2022/06/01 01:24:18;;;;;;;23.05;14.27;;;;;;;10.88;100.00;98872.88;5085446;28;20093;-91
2022/06/01 01:27:12;;;;;;;19.98;13.93;;;;;;;10.55;100.00;98836.88;5071416;28;20032;-91
2022/06/01 01:29:58;;;;;;;21.83;15.10;;;;;;;10.46;100.00;98852.00;5068553;28;20069;-91
2022/06/01 01:32:49;;;;;;;22.45;14.32;;;;;;;10.47;100.00;98837.06;5068952;28;20048;-90
2022/06/01 01:35:34;;;;;;;20.20;14.95;;;;;;;10.77;100.00;98866.41;5057145;28;20124;-90
2022/06/01 01:38:35;;;;;;;21.20;13.45;;;;;;;10.47;100.00;98823.94;5061127;28;20044;-90
2022/06/01 01:41:28;;;;;;;19.95;13.07;;;;;;;10.68;100.00;98860.53;5081430;28;20121;-90
2022/06/01 01:44:26;;;;;;;18.05;13.02;;;;;;;10.65;100.00;98828.59;5070163;28;20028;-90
2022/06/01 01:47:00;;;;;;;16.60;12.82;;;;;;;10.54;100.00;98845.75;5069070;28;20124;-90
2022/06/01 01:49:32;;;;;;;23.20;13.55;;;;;;;10.64;100.00;98838.31;5046405;28;20127;-90
2022/06/01 01:52:06;;;;;;;18.67;13.82;;;;;;;10.71;100.00;98857.50;5068156;28;20049;-91
2022/06/01 01:55:02;;;;;;;16.38;11.68;;;;;;;10.42;100.00;98825.34;5089732;28;20442;-90
2022/06/01 01:58:04;;;;;;;20.55;11.30;;;;;;;10.42;100.00;98841.09;5065944;28;20524;-90
2022/06/01 02:01:02;;;;;;;16.55;11.10;;;;;;;10.65;100.00;98847.81;5055582;28;20037;-90
2022/06/01 02:08:03;;;;;;;16.75;11.73;;;;;;;10.57;100.00;98840.09;4981401;28;20492;-91
2022/06/01 02:17:49;;;;;;;12.25;10.15;;;;;;;10.46;100.00;98828.38;4935863;28;20578;-90
2022/06/01 02:28:11;;;;;;;12.80;7.82;;;;;;;10.49;100.00;98848.19;5061954;28;20041;-90
2022/06/01 02:31:11;;;;;;;10.35;8.18;;;;;;;10.31;100.00;98841.63;5072564;28;20044;-90
2022/06/01 02:33:46;;;;;;;11.13;7.50;;;;;;;10.23;100.00;98855.72;5046655;28;20032;-89
2022/06/01 02:36:30;;;;;;;9.70;6.97;;;;;;;9.93;100.00;98845.53;5060677;28;20044;-90
2022/06/01 02:39:02;;;;;;;11.43;7.10;;;;;;;10.28;100.00;98842.03;5038232;28;20398;-90
2022/06/01 02:42:26;;;;;;;11.98;6.78;;;;;;;10.22;100.00;98822.66;5067645;28;20096;-90
2022/06/01 02:45:01;;;;;;;10.60;7.20;;;;;;;10.05;100.00;98839.72;5046428;28;20426;-90
2022/06/01 02:47:55;;;;;;;7.30;6.10;;;;;;;10.25;100.00;98850.31;5066577;28;20456;-90
2022/06/01 02:50:29;;;;;;;6.82;6.13;;;;;;;10.11;100.00;98838.94;5061996;28;20044;-90
2022/06/01 02:53:31;;;;;;;8.43;6.43;;;;;;;10.07;100.00;98833.28;5056563;28;20398;-90
2022/06/01 02:56:34;;;;;;;8.40;7.15;;;;;;;10.15;100.00;98842.81;5053265;28;20037;-91
2022/06/01 02:59:32;;;;;;;11.52;6.53;;;;;;;9.90;100.00;98842.50;5054442;28;20041;-90
2022/06/01 03:02:42;;;;;;;7.47;6.72;;;;;;;9.80;100.00;98806.94;4985362;28;20129;-91
2022/06/01 03:05:42;;;;;;;12.45;6.88;;;;;;;9.98;100.00;98834.44;5040622;28;20041;-90
2022/06/01 03:08:34;;;;;;;8.63;7.00;;;;;;;9.99;100.00;98847.38;5021814;28;20127;-90
2022/06/01 03:11:01;;;;;;;7.10;5.85;;;;;;;9.87;100.00;98825.34;5039189;28;20041;-90
2022/06/01 03:13:47;;;;;;;8.90;6.75;;;;;;;9.63;100.00;98824.00;4944651;29;20039;-90
2022/06/01 03:16:13;;;;;;;10.38;6.85;;;;;;;9.66;100.00;98840.16;5038963;28;20073;-90
2022/06/01 03:18:39;;;;;;;9.15;6.78;;;;;;;9.72;100.00;98835.97;5039276;28;20032;-90
2022/06/01 03:21:20;;;;;;;10.07;6.30;;;;;;;9.68;100.00;98847.84;5055492;28;20044;-90
2022/06/01 03:23:48;;;;;;;8.80;6.88;;;;;;;9.55;100.00;98849.38;5055361;28;20032;-90
2022/06/01 03:26:32;;;;;;;7.70;5.88;;;;;;;9.61;100.00;98844.34;5043571;28;20399;-90
2022/06/01 03:29:20;;;;;;;12.75;6.50;;;;;;;9.35;100.00;98857.09;5038747;28;20047;-90
2022/06/01 03:31:48;;;;;;;8.77;6.43;;;;;;;9.62;100.00;98853.81;5037244;28;20053;-89
2022/06/01 03:34:19;;;;;;;11.98;7.03;;;;;;;9.51;100.00;98860.41;5054420;28;20044;-88
2022/06/01 03:36:54;;;;;;;12.88;6.80;;;;;;;9.32;100.00;98869.78;5044022;28;20482;-90
2022/06/01 03:39:45;;;;;;;16.30;7.13;;;;;;;9.21;100.00;98845.69;5062677;28;20044;-90
2022/06/01 03:42:25;;;;;;;10.98;6.82;;;;;;;9.19;100.00;98866.03;5044920;28;20044;-89
2022/06/01 03:47:38;;;;;;;12.63;6.65;;;;;;;9.19;100.00;98858.19;5061732;28;20126;-90
2022/06/01 03:50:12;;;;;;;12.05;6.85;;;;;;;9.22;100.00;98864.88;5029181;28;20044;-90
2022/06/01 03:52:39;;;;;;;12.88;7.53;;;;;;;9.08;100.00;98843.00;5037665;28;20037;-90
2022/06/01 03:55:23;;;;;;;14.57;7.40;;;;;;;9.09;100.00;98839.38;5065179;28;20047;-90
2022/06/01 03:57:53;;;;;;;14.82;7.03;;;;;;;9.13;100.00;98883.31;5059006;28;20093;-90
2022/06/01 04:00:42;;;;;;;10.95;6.85;;;;;;;9.09;100.00;98855.88;5061905;28;20520;-89
2022/06/01 04:03:09;;;;;;;10.60;7.00;;;;;;;9.10;100.00;98856.72;5042538;28;20119;-91
2022/06/01 04:06:04;;;;;;;10.50;7.43;;;;;;;9.16;100.00;98876.91;5063206;28;20040;-90
2022/06/01 04:08:34;;;;;;;13.68;7.25;;;;;;;9.25;100.00;98881.00;5059785;28;20482;-90
2022/06/01 04:11:19;;;;;;;7.97;7.10;;;;;;;9.09;100.00;98876.03;5048173;28;20044;-89
2022/06/01 04:14:00;;;;;;;12.93;7.65;;;;;;;8.90;100.00;98867.00;5058760;28;20127;-89
2022/06/01 04:20:40;;;;;;;10.05;7.50;;;;;;;9.17;100.00;98889.00;5077844;28;20047;-90
2022/06/01 04:23:20;;;;;;;12.98;6.97;;;;;;;9.13;100.00;98888.53;5061650;28;20048;-90
2022/06/01 04:26:09;;;;;;;12.40;7.70;;;;;;;9.00;100.00;98886.63;5062725;28;20048;-90
2022/06/01 04:28:35;;;;;;;10.80;7.57;;;;;;;9.08;100.00;98879.66;5044322;28;20032;-89
2022/06/01 04:31:26;;;;;;;9.20;7.53;;;;;;;8.99;100.00;98897.31;5046382;28;20044;-89
2022/06/01 04:33:51;;;;;;;11.35;7.47;;;;;;;8.96;100.00;98877.53;5053817;28;20222;-90
2022/06/01 04:36:37;;;;;;;12.68;8.10;;;;;;;8.92;100.00;98902.47;5075509;28;20044;-87
2022/06/01 04:39:07;;;;;;;10.32;7.55;;;;;;;8.78;100.00;98861.47;5039580;28;20041;-89
2022/06/01 04:41:35;;;;;;;16.58;8.52;;;;;;;8.95;100.00;98893.44;5040177;28;20033;-87
2022/06/01 04:44:01;;;;;;;10.65;8.02;;;;;;;8.81;100.00;98880.22;5058750;28;20025;-89
2022/06/01 04:46:28;;;;;;;10.93;7.70;;;;;;;9.09;100.00;98897.00;5040401;28;20049;-89
2022/06/01 04:48:57;;;;;;;9.10;8.10;;;;;;;8.93;100.00;98901.47;5056907;28;20531;-89
2022/06/01 04:51:23;;;;;;;12.27;7.28;;;;;;;9.09;100.00;98907.47;5075200;28;20501;-90
2022/06/01 04:53:50;;;;;;;10.23;7.60;;;;;;;9.11;100.00;98902.84;5057290;28;20044;-89
2022/06/01 04:56:17;;;;;;;12.85;7.05;;;;;;;9.11;100.00;98905.47;5057615;28;20036;-88
2022/06/01 04:58:43;;;;;;;12.32;7.90;;;;;;;9.28;100.00;98912.06;5040803;28;20040;-90
2022/06/01 05:01:13;;;;;;;8.90;6.88;;;;;;;9.42;100.00;98902.50;5029861;28;20050;-91
2022/06/01 05:03:46;;;;;;;8.75;7.13;;;;;;;9.66;100.00;98912.75;4987113;28;20060;-88
2022/06/01 05:06:24;;;;;;;10.23;7.20;;;;;;;9.99;100.00;98927.84;4999765;28;20431;-89
2022/06/01 05:09:13;;;;;;;8.65;7.15;;;;;;;10.03;100.00;98909.91;5011383;28;20045;-88
2022/06/01 05:11:39;;;;;;;9.60;7.10;;;;;;;10.02;100.00;98921.41;4997367;28;20042;-88
2022/06/01 05:14:13;;;;;;;11.52;7.22;;;;;;;9.92;100.00;98903.41;4996000;28;20033;-88
2022/06/01 05:16:49;;;;;;;9.98;7.28;;;;;;;10.23;100.00;98928.38;5018467;28;20037;-88
2022/06/01 05:19:21;;;;;;;8.27;7.03;;;;;;;10.48;100.00;98925.28;5020168;28;20048;-89
2022/06/01 05:22:00;;;;;;;7.97;6.45;;;;;;;10.44;100.00;98917.00;5020821;28;20408;-89
2022/06/01 05:24:28;;;;;;;9.82;7.18;;;;;;;10.70;100.00;98934.63;5036403;28;20429;-89
2022/06/01 05:27:16;;;;;;;9.70;6.63;;;;;;;10.89;100.00;98931.44;5035911;28;20058;-90
2022/06/01 05:29:57;;;;;;;9.75;7.10;;;;;;;10.82;100.00;98934.88;5017966;28;20041;-87
2022/06/01 05:32:25;;;;;;;11.82;7.20;;;;;;;10.92;100.00;98926.59;4983672;28;20056;-88
2022/06/01 05:34:55;;;;;;;11.23;8.05;;;;;;;10.96;100.00;98940.94;5036785;28;20034;-90
2022/06/01 05:37:29;;;;;;;10.73;6.95;;;;;;;10.94;100.00;98921.97;5004129;28;20089;-90
2022/06/01 05:39:55;;;;;;;10.80;7.75;;;;;;;10.85;100.00;98912.66;5018432;28;20034;-90
2022/06/01 05:42:32;;;;;;;8.18;6.80;;;;;;;11.29;100.00;98932.31;5004222;28;20037;-89
2022/06/01 05:45:07;;;;;;;9.20;6.82;;;;;;;11.33;100.00;98943.22;5019098;28;20044;-89
2022/06/01 05:47:53;;;;;;;8.85;6.28;;;;;;;11.63;100.00;98942.81;5013683;28;20094;-90
2022/06/01 05:50:27;;;;;;;8.80;6.43;;;;;;;11.82;100.00;98941.19;5013088;28;20048;-89
2022/06/01 05:52:53;;;;;;;7.97;5.90;;;;;;;11.74;100.00;98944.00;5005205;28;20436;-89
2022/06/01 05:55:21;;;;;;;7.85;5.75;;;;;;;11.94;100.00;98943.16;5003892;28;20034;-89
2022/06/01 05:57:54;;;;;;;9.00;5.60;;;;;;;11.95;100.00;98939.53;5014870;28;20128;-89
2022/06/01 06:00:20;;;;;;;6.47;5.00;;;;;;;11.94;100.00;98938.72;5029890;28;20053;-89
2022/06/01 06:03:07;;;;;;;6.18;5.50;;;;;;;11.86;100.00;98946.81;5023493;28;20042;-88
2022/06/01 06:08:23;;;;;;;8.70;6.00;;;;;;;11.88;100.00;98949.25;5052366;28;20081;-90
2022/06/01 06:10:51;;;;;;;8.75;6.03;;;;;;;12.04;100.00;98940.97;5020251;28;20394;-90
2022/06/01 06:13:18;;;;;;;6.85;5.80;;;;;;;12.24;100.00;98927.72;5039082;28;20047;-90
2022/06/01 06:16:05;;;;;;;7.65;5.82;;;;;;;12.27;100.00;98942.31;5044147;28;20149;-90
2022/06/01 06:18:32;;;;;;;6.82;5.80;;;;;;;12.71;100.00;98951.22;5016945;28;20041;-87
2022/06/01 06:21:06;;;;;;;9.40;5.60;;;;;;;12.67;100.00;98950.03;5042305;28;20037;-90
2022/06/01 06:23:37;;;;;;;7.30;5.10;;;;;;;12.51;100.00;98950.50;5033190;28;20450;-90
2022/06/01 06:26:34;;;;;;;5.32;4.72;;;;;;;12.90;100.00;98966.34;5050791;28;20116;-89
2022/06/01 06:29:14;;;;;;;6.70;4.90;;;;;;;12.99;100.00;98942.16;5026700;28;20036;-90
2022/06/01 06:32:15;;;;;;;5.20;4.45;;;;;;;13.39;100.00;98967.41;5044709;28;20044;-88
2022/06/01 06:34:48;;;;;;;5.72;4.43;;;;;;;13.32;100.00;98939.50;5047995;28;20024;-87
2022/06/01 06:37:24;;;;;;;5.10;3.88;;;;;;;13.50;100.00;98965.94;5027332;28;20041;-89
2022/06/01 06:40:06;;;;;;;4.40;3.55;;;;;;;13.57;100.00;98961.44;5032053;28;20071;-86
2022/06/01 06:42:44;;;;;;;4.50;3.67;;;;;;;13.52;100.00;98969.16;5044516;28;20759;-86
2022/06/01 06:45:14;;;;;;;4.63;3.75;;;;;;;13.41;100.00;98983.81;5045936;28;20035;-87
2022/06/01 06:47:45;;;;;;;4.78;3.60;;;;;;;13.66;100.00;98958.50;5040212;28;20036;-85
2022/06/01 06:50:15;;;;;;;3.97;3.33;;;;;;;13.89;100.00;98971.09;5028924;28;20449;-90
2022/06/01 06:52:48;;;;;;;4.20;3.45;;;;;;;14.30;100.00;98992.59;5066892;28;20560;-86
2022/06/01 06:55:15;;;;;;;6.13;4.20;;;;;;;14.00;100.00;98974.84;5052216;28;20471;-85
2022/06/01 06:57:43;;;;;;;4.75;3.40;;;;;;;14.39;100.00;98987.81;5037479;28;20044;-86
2022/06/01 07:00:11;;;;;;;6.18;3.60;;;;;;;14.13;100.00;98985.25;5038489;28;20028;-84
2022/06/01 07:02:38;;;;;;;4.57;3.38;;;;;;;14.28;100.00;98984.09;5071703;28;20029;-89
2022/06/01 07:06:08;;;;;;;5.03;3.75;;;;;;;14.56;100.00;98982.78;5058268;28;20135;-90
2022/06/01 07:47:44;;;;;;;7.82;3.70;;;;;;;14.88;100.00;99043.34;4815499;29;20061;-86
2022/06/01 07:50:14;;;;;;;3.53;3.20;;;;;;;14.97;100.00;99035.94;4784398;29;20057;-90
2022/06/01 07:52:40;;;;;;;4.40;3.15;;;;;;;14.73;100.00;99037.66;4771849;29;20050;-90
2022/06/01 08:10:36;;;;;;;2.33;1.98;;;;;;;16.27;100.00;99031.91;3961864;27;20039;-91
2022/06/01 08:13:48;;;;;;;3.55;2.50;;;;;;;16.61;100.00;99063.09;4803620;29;20076;-90
2022/06/01 08:16:20;;;;;;;2.83;2.55;;;;;;;16.28;100.00;99038.81;4819341;29;20071;-91
2022/06/01 08:23:00;;;;;;;5.30;2.90;;;;;;;16.61;98.08;99037.38;4755930;29;20071;-91
2022/06/01 08:25:44;;;;;;;2.83;2.60;;;;;;;16.88;97.93;99031.53;4792880;29;20043;-91
2022/06/01 08:32:21;;;;;;;3.45;2.67;;;;;;;16.55;98.44;99043.63;4809323;29;20187;-89
2022/06/01 08:34:55;;;;;;;2.78;2.55;;;;;;;16.58;99.11;99048.47;4792357;29;20058;-90
2022/06/01 08:38:01;;;;;;;4.15;3.35;;;;;;;16.36;99.18;99056.19;4777946;30;20483;-90
2022/06/01 08:40:53;;;;;;;4.28;3.50;;;;;;;16.59;98.85;99043.94;4762636;30;20043;-89
2022/06/01 08:43:25;;;;;;;4.82;3.30;;;;;;;16.56;97.96;99045.25;4758945;30;20107;-88
2022/06/01 08:49:27;;;;;;;;;;;;;;;;;;;;;
2022/06/01 08:52:30;;;;;;;3.80;3.35;;;;;;;17.40;95.08;99064.34;4769847;30;20051;-92
2022/06/01 08:55:01;;;;;;;4.28;3.40;;;;;;;17.54;95.31;99047.06;4789059;29;20067;-90
2022/06/01 08:57:44;;;;;;;9.38;4.07;;;;;;;17.09;95.51;99069.06;4776157;29;20145;-89
2022/06/01 09:00:17;;;;;;;4.40;4.00;;;;;;;17.48;93.50;99066.59;4805070;29;20530;-88
2022/06/01 09:03:21;;;;;;;4.32;3.78;;;;;;;17.97;93.91;99083.84;4793743;29;20087;-90
2022/06/01 09:06:28;;;;;;;4.88;4.38;;;;;;;18.23;93.66;99081.59;4804377;29;20047;-88
2022/06/01 09:09:22;;;;;;;4.90;4.35;;;;;;;17.89;92.62;99066.47;4804078;29;20066;-90
2022/06/01 09:11:48;;;;;;;4.90;4.40;;;;;;;17.61;92.30;99059.38;4810154;29;20158;-89
2022/06/01 09:14:19;;;;;;;4.20;3.90;;;;;;;18.02;93.71;99083.16;4794211;29;20054;-90
2022/06/01 09:16:50;;;;;;;5.43;4.05;;;;;;;17.68;92.52;99063.47;4793185;29;20046;-87
2022/06/01 09:19:26;;;;;;;4.55;4.13;;;;;;;17.85;92.04;99075.97;4792596;29;20042;-88
2022/06/01 09:22:45;;;;;;;4.00;3.70;;;;;;;17.15;94.26;99092.00;4806385;29;20038;-87
2022/06/01 09:25:19;;;;;;;4.35;3.85;;;;;;;17.35;93.69;99096.09;4804911;29;20084;-88
2022/06/01 09:27:53;;;;;;;5.70;3.95;;;;;;;16.90;94.66;99071.09;4802426;29;20050;-83
2022/06/01 09:30:22;;;;;;;4.95;4.00;;;;;;;16.73;95.28;99102.81;4805496;29;20034;-86
2022/06/01 09:33:26;;;;;;;4.10;3.80;;;;;;;16.60;95.89;99098.56;4788968;29;20050;-86
2022/06/01 09:36:07;;;;;;;4.35;3.95;;;;;;;16.26;97.34;99075.31;4819740;29;20053;-86
2022/06/01 09:38:39;;;;;;;4.55;4.15;;;;;;;16.18;97.11;99075.69;4806227;29;20038;-86
2022/06/01 09:41:24;;;;;;;5.07;4.10;;;;;;;15.98;98.43;99096.16;4806053;29;20038;-86
2022/06/01 09:44:03;;;;;;;5.20;4.15;;;;;;;15.88;100.00;99082.66;4808113;29;20030;-83
2022/06/01 09:46:37;;;;;;;4.22;3.83;;;;;;;16.08;100.00;99106.16;4806122;29;20540;-88
2022/06/01 09:49:25;;;;;;;4.85;4.20;;;;;;;15.49;100.00;99103.38;4789720;29;20041;-87
2022/06/01 09:52:02;;;;;;;6.95;4.30;;;;;;;15.91;100.00;99097.28;4806567;29;20121;-86
2022/06/01 09:54:30;;;;;;;4.70;3.60;;;;;;;16.09;100.00;99105.13;4789245;29;20034;-87
2022/06/01 09:57:14;;;;;;;9.38;4.07;;;;;;;16.37;100.00;99119.56;4803766;29;20164;-86
2022/06/01 10:08:17;;;;;;;8.93;4.80;;;;;;;16.85;98.24;99130.09;4807966;29;20023;-86
2022/06/01 10:10:58;;;;;;;7.07;4.10;;;;;;;17.24;98.06;99125.06;4806555;29;20462;-86
2022/06/01 10:13:38;;;;;;;6.72;4.18;;;;;;;17.61;97.20;99117.75;4808685;29;20035;-85
2022/06/01 10:16:25;;;;;;;5.82;4.57;;;;;;;17.59;97.92;99120.66;4808077;29;20031;-85
2022/06/01 10:18:53;;;;;;;4.55;4.10;;;;;;;18.15;94.86;99121.84;4794150;29;20402;-85
2022/06/01 10:21:23;;;;;;;5.30;4.72;;;;;;;18.04;92.04;99119.03;4809489;29;20068;-87
2022/06/01 10:24:12;;;;;;;18.35;6.75;;;;;;;18.22;91.55;99111.84;4808372;29;20042;-87
2022/06/01 10:26:43;;;;;;;4.90;4.50;;;;;;;17.76;90.97;99126.00;4794841;29;20042;-84
2022/06/01 10:29:17;;;;;;;4.97;4.40;;;;;;;17.94;91.49;99129.47;4805283;29;20103;-85
2022/06/01 10:31:49;;;;;;;13.60;5.57;;;;;;;17.94;90.97;99126.81;4789246;29;20073;-83
2022/06/01 10:34:59;;;;;;;5.32;4.85;;;;;;;18.62;88.43;99118.78;4812236;29;20037;-82
2022/06/01 10:37:37;;;;;;;33.35;6.25;;;;;;;18.96;86.84;99110.72;4816817;29;20104;-85
2022/06/01 10:40:21;;;;;;;11.77;5.70;;;;;;;18.55;84.82;99123.50;4806639;29;21524;-88
2022/06/01 10:43:17;;;;;;;8.10;4.70;;;;;;;19.20;82.74;99126.44;4807352;29;20057;-83
2022/06/01 10:45:52;;;;;;;4.43;4.13;;;;;;;19.50;82.62;99125.16;4808322;29;20119;-86
2022/06/01 10:48:31;;;;;;;6.50;4.32;;;;;;;19.96;81.03;99121.31;4807419;29;20073;-88
2022/06/01 10:51:15;;;;;;;4.30;4.00;;;;;;;20.07;77.80;99115.00;4807325;29;20714;-86
2022/06/01 10:53:51;;;;;;;4.93;4.63;;;;;;;20.41;75.06;99121.88;4806103;29;20026;-86
2022/06/01 10:56:23;;;;;;;4.45;4.15;;;;;;;20.53;74.98;99116.34;4822965;29;20087;-87
2022/06/01 10:58:52;;;;;;;4.40;4.10;;;;;;;20.77;74.08;99129.25;4789896;29;20149;-86
2022/06/01 11:01:50;;;;;;;4.53;4.25;;;;;;;20.79;74.00;99116.47;4806920;29;20073;-87
2022/06/01 11:04:25;;;;;;;4.50;4.20;;;;;;;21.02;74.11;99131.28;4762178;29;20046;-89
2022/06/01 11:07:00;;;;;;;4.65;4.35;;;;;;;20.48;73.31;99121.66;4803910;29;20133;-86
2022/06/01 11:09:31;;;;;;;5.13;4.72;;;;;;;20.90;74.32;99128.00;4802032;29;20058;-88
2022/06/01 11:12:41;;;;;;;27.80;6.40;;;;;;;20.99;71.69;99139.81;4795958;29;20038;-86
2022/06/01 11:15:56;;;;;;;39.47;8.57;;;;;;;20.72;71.25;99139.91;4809229;29;20109;-87
2022/06/01 11:18:40;;;;;;;7.03;4.78;;;;;;;20.62;71.51;99143.34;4796977;29;20092;-87
2022/06/01 11:21:18;;;;;;;4.35;4.10;;;;;;;20.73;71.55;99149.53;4797132;29;20039;-88
2022/06/01 11:23:58;;;;;;;5.10;4.70;;;;;;;20.18;70.96;99149.72;4783415;29;20035;-87
2022/06/01 11:26:46;;;;;;;5.18;4.68;;;;;;;20.86;71.26;99149.09;4811747;29;20125;-86
2022/06/01 11:29:37;;;;;;;4.78;4.47;;;;;;;20.78;72.53;99152.22;4798508;29;20049;-86
2022/06/01 11:32:17;;;;;;;5.10;4.70;;;;;;;20.32;71.17;99150.06;4795747;29;20038;-88
2022/06/01 11:34:52;;;;;;;4.95;4.53;;;;;;;20.77;72.07;99151.41;4779648;29;20521;-89
2022/06/01 11:37:27;;;;;;;4.75;4.35;;;;;;;21.07;69.58;99151.84;4813731;29;20448;-88
2022/06/01 11:40:11;;;;;;;5.03;4.57;;;;;;;21.31;70.49;99154.06;4797364;29;20557;-90
2022/06/01 11:42:55;;;;;;;6.82;4.85;;;;;;;21.02;70.88;99162.47;4795506;29;20411;-86
2022/06/01 11:45:33;;;;;;;5.47;4.88;;;;;;;21.01;70.46;99142.19;4780229;29;20045;-86
2022/06/01 11:48:08;;;;;;;5.30;4.90;;;;;;;20.49;70.44;99142.72;4797338;29;20030;-90
2022/06/01 11:50:48;;;;;;;10.02;8.98;;;;;;;20.30;70.54;99165.53;4795178;29;20137;-87
2022/06/01 11:53:32;;;;;;;5.22;4.82;;;;;;;20.34;71.33;99151.44;4798793;29;20065;-86
2022/06/01 11:56:28;;;;;;;5.97;5.47;;;;;;;19.98;71.58;99175.13;4799470;29;20375;-86
2022/06/01 11:59:19;;;;;;;5.47;5.05;;;;;;;20.39;69.82;99178.13;4794781;29;20047;-86
2022/06/01 12:01:58;;;;;;;5.63;5.13;;;;;;;20.47;70.03;99173.38;4783855;29;20038;-86
2022/06/01 12:04:39;;;;;;;5.38;4.85;;;;;;;20.54;69.36;99174.78;4795639;29;20038;-85
2022/06/01 12:07:16;;;;;;;;;;;;;;;20.88;68.96;99178.16;4795523;29;20069;-86
2022/06/01 12:09:48;;;;;;;5.25;4.47;;;;;;;20.93;67.66;99175.50;4778205;29;20285;-85
2022/06/01 12:12:25;;;;;;;4.32;4.05;;;;;;;21.43;65.92;99176.00;4787958;29;20580;-87
2022/06/01 12:15:01;;;;;;;5.05;4.65;;;;;;;21.47;64.61;99174.38;4787831;29;20512;-85
2022/06/01 12:17:30;;;;;;;4.70;4.40;;;;;;;21.48;64.93;99159.97;4804103;29;20038;-86
2022/06/01 12:20:12;;;;;;;4.63;4.30;;;;;;;22.03;66.39;99170.22;4787892;29;20035;-87
2022/06/01 12:29:07;;;;;;;5.70;5.20;;;;;;;21.11;63.85;99156.38;4802021;29;20068;-90
2022/06/01 12:31:53;;;;;;;5.55;5.13;;;;;;;21.62;64.12;99184.28;4787140;29;20120;-88
2022/06/01 12:34:29;;;;;;;5.93;5.43;;;;;;;21.77;63.21;99188.88;4786304;29;20502;-88
2022/06/01 12:37:08;;;;;;;5.20;4.80;;;;;;;22.16;64.40;99184.09;4782995;29;20105;-88
2022/06/01 12:39:38;;;;;;;22.60;7.50;;;;;;;22.03;62.61;99193.47;4787591;29;20043;-90
2022/06/01 12:42:54;;;;;;;6.82;6.15;;;;;;;21.59;62.94;99187.50;4789379;29;20039;-89
2022/06/01 12:45:39;;;;;;;5.45;5.05;;;;;;;21.68;62.18;99190.47;4751374;29;20051;-87
2022/06/01 12:48:19;;;;;;;5.60;5.20;;;;;;;20.74;61.63;99188.47;4786306;29;20049;-88
2022/06/01 12:50:54;;;;;;;5.00;4.57;;;;;;;21.11;60.38;99198.28;4772472;29;20042;-89
2022/06/01 12:53:26;;;;;;;4.88;4.30;;;;;;;20.81;60.98;99173.88;4789331;29;20055;-86
2022/06/01 12:56:12;;;;;;;5.22;4.75;;;;;;;21.03;60.93;99198.78;4787200;29;20043;-87
2022/06/01 12:58:40;;;;;;;4.90;4.50;;;;;;;21.09;61.65;99189.75;4787011;29;20049;-86
2022/06/01 13:01:08;;;;;;;5.20;4.80;;;;;;;21.03;62.85;99193.44;4787553;29;20578;-86
2022/06/01 13:03:52;;;;;;;4.80;4.40;;;;;;;20.75;63.88;99200.75;4772598;29;20384;-87
2022/06/01 13:06:32;;;;;;;5.07;4.68;;;;;;;20.96;64.29;99204.38;4788284;29;20051;-88
2022/06/01 13:09:12;;;;;;;5.63;5.13;;;;;;;21.23;63.65;99212.22;4806758;29;20034;-88
2022/06/01 13:11:39;;;;;;;4.90;4.50;;;;;;;21.60;63.55;99193.63;4778630;29;20490;-86
2022/06/01 13:14:09;;;;;;;4.80;4.40;;;;;;;21.93;61.87;99207.63;4783309;29;20493;-86
2022/06/01 13:16:43;;;;;;;4.60;4.20;;;;;;;21.86;61.97;99201.75;4798091;29;20030;-91
2022/06/01 13:19:22;;;;;;;5.90;4.93;;;;;;;21.69;63.01;99200.09;4783643;29;20451;-86
2022/06/01 13:21:55;;;;;;;5.50;5.10;;;;;;;22.01;62.12;99191.06;4778002;29;20045;-89
2022/06/01 13:24:24;;;;;;;5.32;4.65;;;;;;;22.22;61.27;99188.41;4785607;29;20088;-88
2022/06/01 13:26:54;;;;;;;4.60;4.30;;;;;;;22.51;60.18;99211.91;4805251;29;20047;-86
2022/06/01 13:29:28;;;;;;;6.38;5.00;;;;;;;21.59;61.16;99208.88;4785942;29;20123;-89
2022/06/01 13:32:06;;;;;;;4.82;4.40;;;;;;;22.01;60.85;99215.13;4799408;29;20435;-91
2022/06/01 13:34:40;;;;;;;13.35;5.57;;;;;;;22.04;61.55;99208.41;4811739;29;20081;-89
2022/06/01 13:37:19;;;;;;;5.47;4.20;;;;;;;21.69;60.41;99216.91;4796304;29;20059;-90
2022/06/01 13:40:24;;;;;;;4.68;4.35;;;;;;;21.79;60.42;99208.13;4777439;29;20069;-89
2022/06/01 13:42:58;;;;;;;4.95;3.95;;;;;;;22.30;59.61;99222.59;4754480;30;20079;-88
2022/06/01 13:45:37;;;;;;;5.20;4.80;;;;;;;22.62;57.64;99218.06;4756051;30;20090;-88
2022/06/01 13:48:16;;;;;;;4.40;4.10;;;;;;;23.57;56.77;99210.25;4755028;30;20093;-88
2022/06/01 13:51:02;;;;;;;4.75;4.25;;;;;;;23.81;56.67;99206.88;4742527;30;20051;-87
2022/06/01 13:53:40;;;;;;;3.95;3.70;;;;;;;24.13;54.90;99197.56;4769779;30;20070;-88
2022/06/01 13:56:32;;;;;;;4.20;4.00;;;;;;;24.38;54.61;99196.53;4752852;30;20595;-89
2022/06/01 13:59:10;;;;;;;5.13;4.40;;;;;;;24.04;54.81;99197.38;4740553;30;20519;-89
2022/06/01 14:01:41;;;;;;;4.15;3.90;;;;;;;23.82;53.90;99214.66;4740690;30;20108;-88
2022/06/01 14:04:29;;;;;;;4.20;3.90;;;;;;;23.43;55.37;99204.69;4777054;29;20066;-88
2022/06/01 14:07:14;;;;;;;4.18;3.83;;;;;;;23.62;52.74;99218.25;4784287;29;20490;-87
2022/06/01 14:10:00;;;;;;;4.07;3.78;;;;;;;23.15;51.53;99188.19;4797715;29;20055;-87
2022/06/01 14:12:37;;;;;;;5.30;4.90;;;;;;;23.19;56.31;99215.22;4796858;29;20073;-88
2022/06/01 14:15:14;;;;;;;5.35;4.95;;;;;;;22.87;58.62;99219.06;4801402;29;20122;-89
2022/06/01 14:17:48;;;;;;;5.75;5.35;;;;;;;22.46;59.71;99214.56;4806024;29;20447;-89